sensor_id;sensor_type;location;lat;lon;timestamp;noise_LAeq;noise_LA_min;noise_LA_max;noise_LA01;noise_LA95
37279;Laerm;7458;49.002;8.472;2023-09-18T00:01:37;38.24;30.89;43.14;;
37279;Laerm;7458;49.002;8.472;2023-09-18T00:04:05;38.84;32.35;43.14;;
37279;Laerm;7458;49.002;8.472;2023-09-18T00:06:33;38.67;31.68;43.81;;
37279;Laerm;7458;49.002;8.472;2023-09-18T00:08:59;38.47;32.00;42.93;;
37279;Laerm;7458;49.002;8.472;2023-09-18T00:11:24;38.27;31.68;43.04;;
37279;Laerm;7458;49.002;8.472;2023-09-18T00:13:50;38.37;32.35;42.98;;
37279;Laerm;7458;49.002;8.472;2023-09-18T00:16:16;38.98;32.35;43.14;;
37279;Laerm;7458;49.002;8.472;2023-09-18T00:18:43;38.50;31.68;42.93;;
37279;Laerm;7458;49.002;8.472;2023-09-18T00:21:11;38.88;33.44;42.76;;
37279;Laerm;7458;49.002;8.472;2023-09-18T00:23:37;38.40;32.35;42.82;;
37279;Laerm;7458;49.002;8.472;2023-09-18T00:26:03;38.83;32.35;44.80;;
37279;Laerm;7458;49.002;8.472;2023-09-18T00:28:29;38.92;31.68;43.04;;
37279;Laerm;7458;49.002;8.472;2023-09-18T00:30:56;38.51;30.89;43.29;;
37279;Laerm;7458;49.002;8.472;2023-09-18T00:33:23;39.03;31.68;45.86;;
37279;Laerm;7458;49.002;8.472;2023-09-18T00:35:50;38.64;33.44;43.04;;
37279;Laerm;7458;49.002;8.472;2023-09-18T00:38:17;38.79;29.92;42.82;;
37279;Laerm;7458;49.002;8.472;2023-09-18T00:40:43;38.55;33.44;42.93;;
37279;Laerm;7458;49.002;8.472;2023-09-18T00:43:09;38.67;32.35;44.90;;
37279;Laerm;7458;49.002;8.472;2023-09-18T00:45:41;38.59;32.35;43.14;;
37279;Laerm;7458;49.002;8.472;2023-09-18T00:48:08;39.35;34.31;44.80;;
37279;Laerm;7458;49.002;8.472;2023-09-18T00:50:35;39.80;33.44;43.81;;
37279;Laerm;7458;49.002;8.472;2023-09-18T00:53:02;39.51;33.44;42.98;;
37279;Laerm;7458;49.002;8.472;2023-09-18T00:55:30;39.00;33.90;42.71;;
37279;Laerm;7458;49.002;8.472;2023-09-18T00:57:56;39.18;32.93;43.24;;
37279;Laerm;7458;49.002;8.472;2023-09-18T01:00:22;39.21;34.69;42.98;;
37279;Laerm;7458;49.002;8.472;2023-09-18T01:02:49;38.99;32.93;48.40;;
37279;Laerm;7458;49.002;8.472;2023-09-18T01:05:15;38.99;33.44;43.19;;
37279;Laerm;7458;49.002;8.472;2023-09-18T01:07:46;40.15;35.66;44.54;;
37279;Laerm;7458;49.002;8.472;2023-09-18T01:10:13;41.06;36.45;48.43;;
37279;Laerm;7458;49.002;8.472;2023-09-18T01:12:56;41.79;35.36;44.97;;
37279;Laerm;7458;49.002;8.472;2023-09-18T01:15:41;42.35;38.81;45.43;;
37279;Laerm;7458;49.002;8.472;2023-09-18T01:18:10;41.19;38.05;44.62;;
37279;Laerm;7458;49.002;8.472;2023-09-18T01:20:36;41.03;37.12;43.89;;
37279;Laerm;7458;49.002;8.472;2023-09-18T01:23:02;40.50;35.66;44.15;;
37279;Laerm;7458;49.002;8.472;2023-09-18T01:25:31;40.49;36.45;43.81;;
37279;Laerm;7458;49.002;8.472;2023-09-18T01:27:58;40.59;36.69;44.35;;
37279;Laerm;7458;49.002;8.472;2023-09-18T01:30:24;40.59;36.20;44.11;;
37279;Laerm;7458;49.002;8.472;2023-09-18T01:32:51;40.54;36.69;43.81;;
37279;Laerm;7458;49.002;8.472;2023-09-18T01:35:20;40.87;37.70;43.99;;
37279;Laerm;7458;49.002;8.472;2023-09-18T01:37:49;40.55;36.91;43.81;;
37279;Laerm;7458;49.002;8.472;2023-09-18T01:40:16;40.68;33.90;43.86;;
37279;Laerm;7458;49.002;8.472;2023-09-18T01:42:43;40.70;37.12;44.07;;
37279;Laerm;7458;49.002;8.472;2023-09-18T01:45:10;41.22;37.52;51.29;;
37279;Laerm;7458;49.002;8.472;2023-09-18T01:47:36;41.49;37.52;54.96;;
37279;Laerm;7458;49.002;8.472;2023-09-18T01:50:05;41.39;37.52;45.27;;
37279;Laerm;7458;49.002;8.472;2023-09-18T01:52:31;40.92;37.12;46.02;;
37279;Laerm;7458;49.002;8.472;2023-09-18T01:54:57;42.13;38.21;44.43;;
37279;Laerm;7458;49.002;8.472;2023-09-18T01:57:23;42.50;38.21;45.60;;
37279;Laerm;7458;49.002;8.472;2023-09-18T01:59:49;41.78;38.37;44.87;;
37279;Laerm;7458;49.002;8.472;2023-09-18T02:02:14;42.02;37.12;44.15;;
37279;Laerm;7458;49.002;8.472;2023-09-18T02:04:41;43.32;39.81;49.19;;
37279;Laerm;7458;49.002;8.472;2023-09-18T02:07:06;43.20;40.62;46.84;;
37279;Laerm;7458;49.002;8.472;2023-09-18T02:09:32;43.26;39.46;46.02;;
37279;Laerm;7458;49.002;8.472;2023-09-18T02:11:58;42.78;40.23;58.38;;
37279;Laerm;7458;49.002;8.472;2023-09-18T02:14:24;42.63;40.03;52.68;;
37279;Laerm;7458;49.002;8.472;2023-09-18T02:16:50;42.72;38.81;44.80;;
37279;Laerm;7458;49.002;8.472;2023-09-18T02:19:17;42.08;38.67;44.15;;
37279;Laerm;7458;49.002;8.472;2023-09-18T02:21:44;42.19;39.58;44.87;;
37279;Laerm;7458;49.002;8.472;2023-09-18T02:24:09;42.41;39.21;44.58;;
37279;Laerm;7458;49.002;8.472;2023-09-18T02:26:35;42.20;39.46;44.54;;
37279;Laerm;7458;49.002;8.472;2023-09-18T02:29:08;41.82;38.67;44.47;;
37279;Laerm;7458;49.002;8.472;2023-09-18T02:31:37;41.79;36.45;43.94;;
37279;Laerm;7458;49.002;8.472;2023-09-18T02:34:03;41.70;38.21;44.23;;
37279;Laerm;7458;49.002;8.472;2023-09-18T02:36:29;41.58;38.37;44.11;;
37279;Laerm;7458;49.002;8.472;2023-09-18T02:38:54;41.85;38.05;49.45;;
37279;Laerm;7458;49.002;8.472;2023-09-18T02:41:20;41.24;37.32;45.66;;
37279;Laerm;7458;49.002;8.472;2023-09-18T02:43:46;43.41;37.52;61.19;;
37279;Laerm;7458;49.002;8.472;2023-09-18T02:46:12;41.88;38.05;45.20;;
37279;Laerm;7458;49.002;8.472;2023-09-18T02:48:37;41.52;36.69;51.08;;
37279;Laerm;7458;49.002;8.472;2023-09-18T02:51:04;43.98;38.67;57.96;;
37279;Laerm;7458;49.002;8.472;2023-09-18T02:53:30;42.17;38.81;44.54;;
37279;Laerm;7458;49.002;8.472;2023-09-18T02:55:57;41.76;38.52;47.12;;
37279;Laerm;7458;49.002;8.472;2023-09-18T02:58:24;42.05;38.52;47.18;;
37279;Laerm;7458;49.002;8.472;2023-09-18T03:00:52;41.96;38.95;47.88;;
37279;Laerm;7458;49.002;8.472;2023-09-18T03:03:21;42.20;39.34;48.67;;
37279;Laerm;7458;49.002;8.472;2023-09-18T03:05:47;42.69;39.92;50.28;;
37279;Laerm;7458;49.002;8.472;2023-09-18T03:08:14;42.85;40.23;50.93;;
37279;Laerm;7458;49.002;8.472;2023-09-18T03:10:43;42.94;38.52;49.53;;
37279;Laerm;7458;49.002;8.472;2023-09-18T03:13:11;42.66;39.70;44.87;;
37279;Laerm;7458;49.002;8.472;2023-09-18T03:15:37;42.74;38.52;50.88;;
37279;Laerm;7458;49.002;8.472;2023-09-18T03:18:05;43.10;38.67;50.39;;
37279;Laerm;7458;49.002;8.472;2023-09-18T03:20:33;45.83;39.81;62.23;;
37279;Laerm;7458;49.002;8.472;2023-09-18T03:23:01;42.81;39.46;57.10;;
37279;Laerm;7458;49.002;8.472;2023-09-18T03:25:27;42.78;39.46;45.75;;
37279;Laerm;7458;49.002;8.472;2023-09-18T03:27:56;42.93;39.92;54.40;;
37279;Laerm;7458;49.002;8.472;2023-09-18T03:30:23;43.03;40.33;50.16;;
37279;Laerm;7458;49.002;8.472;2023-09-18T03:32:50;43.34;40.89;48.34;;
37279;Laerm;7458;49.002;8.472;2023-09-18T03:35:17;43.32;40.98;46.64;;
37279;Laerm;7458;49.002;8.472;2023-09-18T03:37:51;43.47;40.71;47.76;;
37279;Laerm;7458;49.002;8.472;2023-09-18T03:40:19;44.31;41.30;51.76;;
37279;Laerm;7458;49.002;8.472;2023-09-18T03:42:45;45.02;41.75;64.03;;
37279;Laerm;7458;49.002;8.472;2023-09-18T03:45:12;43.54;41.06;52.91;;
37279;Laerm;7458;49.002;8.472;2023-09-18T03:47:40;43.99;41.14;63.44;;
37279;Laerm;7458;49.002;8.472;2023-09-18T03:50:08;44.79;40.89;58.03;;
37279;Laerm;7458;49.002;8.472;2023-09-18T03:52:35;50.79;41.30;66.64;;
37279;Laerm;7458;49.002;8.472;2023-09-18T03:55:01;51.44;42.93;76.37;;
37279;Laerm;7458;49.002;8.472;2023-09-18T03:57:27;51.24;45.51;65.07;;
37279;Laerm;7458;49.002;8.472;2023-09-18T03:59:53;53.73;47.55;79.36;;
37279;Laerm;7458;49.002;8.472;2023-09-18T04:02:24;46.83;43.29;60.31;;
37279;Laerm;7458;49.002;8.472;2023-09-18T04:04:49;53.90;43.19;74.30;;
37279;Laerm;7458;49.002;8.472;2023-09-18T04:07:15;52.98;45.77;68.20;;
37279;Laerm;7458;49.002;8.472;2023-09-18T04:09:42;48.64;43.68;65.31;;
37279;Laerm;7458;49.002;8.472;2023-09-18T04:12:08;52.96;46.91;70.15;;
37279;Laerm;7458;49.002;8.472;2023-09-18T04:14:35;50.91;46.55;71.70;;
37279;Laerm;7458;49.002;8.472;2023-09-18T04:17:01;51.41;45.94;69.07;;
37279;Laerm;7458;49.002;8.472;2023-09-18T04:19:27;85.22;43.90;97.48;;
37279;Laerm;7458;49.002;8.472;2023-09-18T04:21:53;83.50;43.29;95.56;;
37279;Laerm;7458;49.002;8.472;2023-09-18T04:24:19;80.79;43.29;91.96;;
37279;Laerm;7458;49.002;8.472;2023-09-18T04:26:45;80.08;41.75;92.74;;
37279;Laerm;7458;49.002;8.472;2023-09-18T04:29:10;79.45;40.23;91.80;;
37279;Laerm;7458;49.002;8.472;2023-09-18T04:31:36;79.04;39.34;90.92;;
37279;Laerm;7458;49.002;8.472;2023-09-18T04:34:03;78.81;39.58;90.45;;
37279;Laerm;7458;49.002;8.472;2023-09-18T04:36:29;78.56;38.52;90.56;;
37279;Laerm;7458;49.002;8.472;2023-09-18T04:38:55;78.27;39.08;90.56;;
37279;Laerm;7458;49.002;8.472;2023-09-18T04:41:21;78.60;39.92;90.43;;
37279;Laerm;7458;49.002;8.472;2023-09-18T04:43:47;78.58;39.34;90.86;;
37279;Laerm;7458;49.002;8.472;2023-09-18T04:46:12;78.39;39.70;91.78;;
37279;Laerm;7458;49.002;8.472;2023-09-18T04:48:38;78.34;40.03;91.95;;
37279;Laerm;7458;49.002;8.472;2023-09-18T04:51:04;78.36;38.81;90.65;;
37279;Laerm;7458;49.002;8.472;2023-09-18T04:53:32;78.39;38.81;90.92;;
37279;Laerm;7458;49.002;8.472;2023-09-18T04:55:58;78.43;39.08;90.50;;
37279;Laerm;7458;49.002;8.472;2023-09-18T04:58:24;78.77;39.92;91.72;;
37279;Laerm;7458;49.002;8.472;2023-09-18T05:00:57;78.72;40.33;90.92;;
37279;Laerm;7458;49.002;8.472;2023-09-18T05:03:23;78.66;39.34;90.56;;
37279;Laerm;7458;49.002;8.472;2023-09-18T05:05:49;78.65;39.70;90.67;;
37279;Laerm;7458;49.002;8.472;2023-09-18T05:08:16;78.82;40.03;91.88;;
37279;Laerm;7458;49.002;8.472;2023-09-18T05:10:41;79.03;40.03;92.07;;
37279;Laerm;7458;49.002;8.472;2023-09-18T05:13:09;78.42;40.80;89.57;;
37279;Laerm;7458;49.002;8.472;2023-09-18T05:15:35;78.56;41.38;90.78;;
37279;Laerm;7458;49.002;8.472;2023-09-18T05:18:01;78.56;40.71;91.12;;
37279;Laerm;7458;49.002;8.472;2023-09-18T05:20:28;78.80;40.71;90.92;;
37279;Laerm;7458;49.002;8.472;2023-09-18T05:22:57;78.66;40.80;90.29;;
37279;Laerm;7458;49.002;8.472;2023-09-18T05:25:26;78.90;39.92;91.99;;
37279;Laerm;7458;49.002;8.472;2023-09-18T05:27:57;79.05;41.68;90.92;;
37279;Laerm;7458;49.002;8.472;2023-09-18T05:30:34;79.19;40.53;91.91;;
37279;Laerm;7458;49.002;8.472;2023-09-18T05:33:02;79.27;39.81;90.92;;
37279;Laerm;7458;49.002;8.472;2023-09-18T05:35:41;79.26;41.38;90.69;;
37279;Laerm;7458;49.002;8.472;2023-09-18T05:38:09;79.28;41.68;91.69;;
37279;Laerm;7458;49.002;8.472;2023-09-18T05:40:36;79.24;41.48;90.74;;
37279;Laerm;7458;49.002;8.472;2023-09-18T05:43:02;79.41;41.82;90.30;;
37279;Laerm;7458;49.002;8.472;2023-09-18T05:45:28;79.44;41.89;91.12;;
37279;Laerm;7458;49.002;8.472;2023-09-18T05:47:54;79.57;42.29;90.86;;
37279;Laerm;7458;49.002;8.472;2023-09-18T05:50:27;79.64;42.22;91.95;;
37279;Laerm;7458;49.002;8.472;2023-09-18T05:52:55;80.00;41.75;92.41;;
37279;Laerm;7458;49.002;8.472;2023-09-18T05:55:26;81.02;41.68;92.98;;
37279;Laerm;7458;49.002;8.472;2023-09-18T05:57:53;82.11;42.03;93.70;;
37279;Laerm;7458;49.002;8.472;2023-09-18T06:00:19;84.15;41.68;97.43;;
37279;Laerm;7458;49.002;8.472;2023-09-18T06:02:45;84.63;42.53;97.26;;
37279;Laerm;7458;49.002;8.472;2023-09-18T06:05:11;85.29;42.98;98.39;;
37279;Laerm;7458;49.002;8.472;2023-09-18T06:07:37;84.20;41.53;97.04;;
37279;Laerm;7458;49.002;8.472;2023-09-18T06:10:03;84.34;42.65;98.52;;
37279;Laerm;7458;49.002;8.472;2023-09-18T06:12:30;82.63;42.22;98.67;;
37279;Laerm;7458;49.002;8.472;2023-09-18T06:14:56;84.06;41.68;98.01;;
37279;Laerm;7458;49.002;8.472;2023-09-18T06:17:21;69.95;41.14;95.33;;
37279;Laerm;7458;49.002;8.472;2023-09-18T06:19:47;81.00;41.89;96.84;;
37279;Laerm;7458;49.002;8.472;2023-09-18T06:22:13;60.28;41.82;92.68;;
37279;Laerm;7458;49.002;8.472;2023-09-18T06:24:40;56.67;41.30;76.60;;
37279;Laerm;7458;49.002;8.472;2023-09-18T06:27:06;52.88;41.53;71.54;;
37279;Laerm;7458;49.002;8.472;2023-09-18T06:29:35;49.42;41.41;63.92;;
37279;Laerm;7458;49.002;8.472;2023-09-18T06:32:03;72.92;39.81;91.90;;
37279;Laerm;7458;49.002;8.472;2023-09-18T06:34:29;74.67;40.13;91.79;;
37279;Laerm;7458;49.002;8.472;2023-09-18T06:36:58;74.19;40.23;91.62;;
37279;Laerm;7458;49.002;8.472;2023-09-18T06:39:24;74.03;40.36;91.79;;
37279;Laerm;7458;49.002;8.472;2023-09-18T06:41:51;73.90;41.03;88.86;;
37279;Laerm;7458;49.002;8.472;2023-09-18T06:44:17;73.27;40.33;89.21;;
37279;Laerm;7458;49.002;8.472;2023-09-18T06:46:42;73.86;40.71;89.13;;
37279;Laerm;7458;49.002;8.472;2023-09-18T06:49:08;73.79;40.71;89.08;;
37279;Laerm;7458;49.002;8.472;2023-09-18T06:51:34;73.70;41.14;89.08;;
37279;Laerm;7458;49.002;8.472;2023-09-18T06:54:00;73.55;40.23;88.63;;
37279;Laerm;7458;49.002;8.472;2023-09-18T06:56:28;73.93;41.61;89.14;;
37279;Laerm;7458;49.002;8.472;2023-09-18T06:58:54;73.44;40.43;90.92;;
37279;Laerm;7458;49.002;8.472;2023-09-18T07:01:21;74.36;42.53;90.46;;
37279;Laerm;7458;49.002;8.472;2023-09-18T07:03:48;73.60;40.03;91.61;;
37279;Laerm;7458;49.002;8.472;2023-09-18T07:06:15;74.10;41.53;89.21;;
37279;Laerm;7458;49.002;8.472;2023-09-18T07:08:47;73.89;40.62;89.13;;
37279;Laerm;7458;49.002;8.472;2023-09-18T07:11:17;73.61;41.14;89.37;;
37279;Laerm;7458;49.002;8.472;2023-09-18T07:13:43;73.56;40.98;88.63;;
37279;Laerm;7458;49.002;8.472;2023-09-18T07:16:12;73.78;40.89;89.24;;
37279;Laerm;7458;49.002;8.472;2023-09-18T07:18:39;73.34;40.89;89.14;;
37279;Laerm;7458;49.002;8.472;2023-09-18T07:21:05;73.03;40.80;89.22;;
37279;Laerm;7458;49.002;8.472;2023-09-18T07:23:30;73.77;40.53;91.81;;
37279;Laerm;7458;49.002;8.472;2023-09-18T07:25:56;73.86;40.62;89.13;;
37279;Laerm;7458;49.002;8.472;2023-09-18T07:28:25;73.80;40.79;91.62;;
37279;Laerm;7458;49.002;8.472;2023-09-18T07:30:51;74.66;40.80;91.65;;
37279;Laerm;7458;49.002;8.472;2023-09-18T07:33:17;75.50;41.14;91.79;;
37279;Laerm;7458;49.002;8.472;2023-09-18T07:35:49;75.38;40.62;91.79;;
37279;Laerm;7458;49.002;8.472;2023-09-18T07:38:17;76.11;40.23;91.83;;
37279;Laerm;7458;49.002;8.472;2023-09-18T07:40:46;76.46;40.03;91.79;;
37279;Laerm;7458;49.002;8.472;2023-09-18T07:43:13;77.33;40.43;91.65;;
37279;Laerm;7458;49.002;8.472;2023-09-18T07:45:39;79.69;40.08;93.55;;
37279;Laerm;7458;49.002;8.472;2023-09-18T07:48:07;81.40;40.71;95.29;;
37279;Laerm;7458;49.002;8.472;2023-09-18T07:50:36;79.06;40.13;91.87;;
37279;Laerm;7458;49.002;8.472;2023-09-18T07:53:03;78.35;40.03;92.82;;
37279;Laerm;7458;49.002;8.472;2023-09-18T07:55:29;78.46;38.95;92.81;;
37279;Laerm;7458;49.002;8.472;2023-09-18T07:57:56;78.61;38.52;91.76;;
37279;Laerm;7458;49.002;8.472;2023-09-18T08:00:22;78.91;40.08;92.81;;
37279;Laerm;7458;49.002;8.472;2023-09-18T08:02:49;79.06;40.03;91.89;;
37279;Laerm;7458;49.002;8.472;2023-09-18T08:05:16;78.87;40.23;91.67;;
37279;Laerm;7458;49.002;8.472;2023-09-18T08:07:42;78.69;39.92;90.89;;
37279;Laerm;7458;49.002;8.472;2023-09-18T08:10:09;79.70;40.23;93.87;;
37279;Laerm;7458;49.002;8.472;2023-09-18T08:12:36;82.07;40.43;94.78;;
37279;Laerm;7458;49.002;8.472;2023-09-18T08:15:02;82.42;41.06;94.24;;
37279;Laerm;7458;49.002;8.472;2023-09-18T08:17:28;84.67;41.61;97.18;;
37279;Laerm;7458;49.002;8.472;2023-09-18T08:19:54;83.65;41.61;98.40;;
37279;Laerm;7458;49.002;8.472;2023-09-18T08:22:21;84.91;40.23;97.50;;
37279;Laerm;7458;49.002;8.472;2023-09-18T08:24:48;82.97;40.98;97.48;;
37279;Laerm;7458;49.002;8.472;2023-09-18T08:27:16;85.64;40.53;97.66;;
37279;Laerm;7458;49.002;8.472;2023-09-18T08:29:46;83.81;40.62;94.88;;
37279;Laerm;7458;49.002;8.472;2023-09-18T08:32:12;82.80;40.89;93.90;;
37279;Laerm;7458;49.002;8.472;2023-09-18T08:34:37;83.97;40.89;96.67;;
37279;Laerm;7458;49.002;8.472;2023-09-18T08:37:03;83.06;41.38;96.68;;
37279;Laerm;7458;49.002;8.472;2023-09-18T08:39:30;83.37;41.46;95.74;;
37279;Laerm;7458;49.002;8.472;2023-09-18T08:42:03;73.55;40.33;97.84;;
37279;Laerm;7458;49.002;8.472;2023-09-18T08:44:30;86.44;41.46;97.64;;
37279;Laerm;7458;49.002;8.472;2023-09-18T08:46:57;83.94;41.53;95.30;;
37279;Laerm;7458;49.002;8.472;2023-09-18T08:49:24;84.24;41.75;96.72;;
37279;Laerm;7458;49.002;8.472;2023-09-18T08:51:51;84.68;41.30;96.76;;
37279;Laerm;7458;49.002;8.472;2023-09-18T08:54:19;79.61;41.38;97.41;;
37279;Laerm;7458;49.002;8.472;2023-09-18T08:56:45;46.00;39.92;58.11;;
37279;Laerm;7458;49.002;8.472;2023-09-18T08:59:12;43.06;39.70;48.73;;
37279;Laerm;7458;49.002;8.472;2023-09-18T09:01:39;51.62;39.34;72.83;;
37279;Laerm;7458;49.002;8.472;2023-09-18T09:04:05;48.01;40.53;69.33;;
37279;Laerm;7458;49.002;8.472;2023-09-18T09:06:31;51.91;40.33;67.61;;
37279;Laerm;7458;49.002;8.472;2023-09-18T09:08:57;55.75;39.21;74.61;;
37279;Laerm;7458;49.002;8.472;2023-09-18T09:11:23;49.22;39.81;66.08;;
37279;Laerm;7458;49.002;8.472;2023-09-18T09:14:13;48.40;39.92;64.03;;
37279;Laerm;7458;49.002;8.472;2023-09-18T09:16:49;43.03;39.70;56.68;;
37279;Laerm;7458;49.002;8.472;2023-09-18T09:19:17;49.87;39.81;66.34;;
37279;Laerm;7458;49.002;8.472;2023-09-18T09:21:44;44.63;39.58;64.13;;
37279;Laerm;7458;49.002;8.472;2023-09-18T09:24:11;49.59;40.23;64.05;;
37279;Laerm;7458;49.002;8.472;2023-09-18T09:26:43;49.84;40.80;68.53;;
37279;Laerm;7458;49.002;8.472;2023-09-18T09:29:18;56.31;43.97;77.48;;
37279;Laerm;7458;49.002;8.472;2023-09-18T09:31:44;45.17;41.14;63.49;;
37279;Laerm;7458;49.002;8.472;2023-09-18T09:34:12;50.40;40.03;63.74;;
37279;Laerm;7458;49.002;8.472;2023-09-18T09:36:57;50.94;39.92;72.49;;
37279;Laerm;7458;49.002;8.472;2023-09-18T09:39:23;50.39;40.53;67.07;;
37279;Laerm;7458;49.002;8.472;2023-09-18T09:41:53;45.39;39.92;60.83;;
37279;Laerm;7458;49.002;8.472;2023-09-18T09:44:20;46.64;39.21;64.79;;
37279;Laerm;7458;49.002;8.472;2023-09-18T09:46:50;43.71;38.52;51.89;;
37279;Laerm;7458;49.002;8.472;2023-09-18T09:49:17;47.71;40.53;65.39;;
37279;Laerm;7458;49.002;8.472;2023-09-18T09:51:46;46.75;39.68;62.13;;
37279;Laerm;7458;49.002;8.472;2023-09-18T09:54:12;49.09;40.43;65.38;;
37279;Laerm;7458;49.002;8.472;2023-09-18T09:56:49;44.32;39.46;57.88;;
37279;Laerm;7458;49.002;8.472;2023-09-18T09:59:19;47.08;38.81;62.46;;
37279;Laerm;7458;49.002;8.472;2023-09-18T10:01:49;49.66;40.33;67.41;;
37279;Laerm;7458;49.002;8.472;2023-09-18T10:04:17;46.73;40.03;62.67;;
37279;Laerm;7458;49.002;8.472;2023-09-18T10:07:05;45.65;39.21;60.64;;
37279;Laerm;7458;49.002;8.472;2023-09-18T10:09:35;47.83;40.23;66.00;;
37279;Laerm;7458;49.002;8.472;2023-09-18T10:12:11;47.27;39.08;61.82;;
37279;Laerm;7458;49.002;8.472;2023-09-18T10:14:38;46.50;40.43;64.06;;
37279;Laerm;7458;49.002;8.472;2023-09-18T10:17:17;46.29;39.81;70.00;;
37279;Laerm;7458;49.002;8.472;2023-09-18T10:22:31;47.72;39.08;61.98;;
37279;Laerm;7458;49.002;8.472;2023-09-18T10:25:29;49.78;41.11;67.99;;
37279;Laerm;7458;49.002;8.472;2023-09-18T10:27:58;45.14;40.80;63.63;;
37279;Laerm;7458;49.002;8.472;2023-09-18T10:30:29;48.15;39.21;66.04;;
37279;Laerm;7458;49.002;8.472;2023-09-18T10:32:56;46.78;40.03;65.04;;
37279;Laerm;7458;49.002;8.472;2023-09-18T10:35:23;47.76;39.92;64.38;;
37279;Laerm;7458;49.002;8.472;2023-09-18T10:37:49;44.52;39.81;58.45;;
37279;Laerm;7458;49.002;8.472;2023-09-18T10:40:20;45.69;40.62;58.06;;
37279;Laerm;7458;49.002;8.472;2023-09-18T10:42:50;48.11;40.62;65.07;;
37279;Laerm;7458;49.002;8.472;2023-09-18T10:45:17;47.20;40.13;64.66;;
37279;Laerm;7458;49.002;8.472;2023-09-18T10:47:44;46.96;40.03;60.17;;
37279;Laerm;7458;49.002;8.472;2023-09-18T10:50:23;46.02;40.71;61.64;;
37279;Laerm;7458;49.002;8.472;2023-09-18T10:52:50;45.90;41.06;57.12;;
37279;Laerm;7458;49.002;8.472;2023-09-18T10:55:17;48.56;40.53;67.46;;
37279;Laerm;7458;49.002;8.472;2023-09-18T10:57:54;49.79;40.23;64.73;;
37279;Laerm;7458;49.002;8.472;2023-09-18T11:00:32;51.56;40.23;68.67;;
37279;Laerm;7458;49.002;8.472;2023-09-18T11:03:17;51.12;40.23;68.02;;
37279;Laerm;7458;49.002;8.472;2023-09-18T11:05:47;51.51;39.81;75.34;;
37279;Laerm;7458;49.002;8.472;2023-09-18T11:11:09;49.18;39.08;68.22;;
37279;Laerm;7458;49.002;8.472;2023-09-18T11:13:43;48.98;38.81;70.26;;
37279;Laerm;7458;49.002;8.472;2023-09-18T11:16:34;50.48;39.21;66.32;;
37279;Laerm;7458;49.002;8.472;2023-09-18T11:21:33;49.43;40.23;64.98;;
37279;Laerm;7458;49.002;8.472;2023-09-18T11:24:03;53.49;38.81;74.03;;
37279;Laerm;7458;49.002;8.472;2023-09-18T11:26:31;57.18;40.33;78.09;;
37279;Laerm;7458;49.002;8.472;2023-09-18T11:29:05;47.91;40.33;67.67;;
37279;Laerm;7458;49.002;8.472;2023-09-18T11:31:55;47.92;39.58;65.26;;
37279;Laerm;7458;49.002;8.472;2023-09-18T11:34:30;43.98;39.21;68.42;;
37279;Laerm;7458;49.002;8.472;2023-09-18T11:37:22;48.11;40.03;64.89;;
37279;Laerm;7458;49.002;8.472;2023-09-18T11:39:51;49.46;39.34;67.20;;
37279;Laerm;7458;49.002;8.472;2023-09-18T11:42:21;49.16;38.81;66.40;;
37279;Laerm;7458;49.002;8.472;2023-09-18T11:44:49;49.30;39.46;66.02;;
37279;Laerm;7458;49.002;8.472;2023-09-18T11:47:18;49.85;41.06;71.16;;
37279;Laerm;7458;49.002;8.472;2023-09-18T11:49:55;51.31;39.70;68.65;;
37279;Laerm;7458;49.002;8.472;2023-09-18T11:52:27;54.37;39.70;74.28;;
37279;Laerm;7458;49.002;8.472;2023-09-18T11:54:57;47.73;39.70;65.23;;
37279;Laerm;7458;49.002;8.472;2023-09-18T11:57:24;56.60;40.62;75.18;;
37279;Laerm;7458;49.002;8.472;2023-09-18T11:59:51;50.89;38.52;64.91;;
37279;Laerm;7458;49.002;8.472;2023-09-18T12:02:30;46.96;39.08;63.36;;
37279;Laerm;7458;49.002;8.472;2023-09-18T12:05:19;50.00;40.13;67.22;;
37279;Laerm;7458;49.002;8.472;2023-09-18T12:07:47;48.92;40.53;61.41;;
37279;Laerm;7458;49.002;8.472;2023-09-18T12:10:18;42.91;38.37;56.55;;
37279;Laerm;7458;49.002;8.472;2023-09-18T12:12:45;49.66;38.52;64.79;;
37279;Laerm;7458;49.002;8.472;2023-09-18T12:15:17;60.94;39.21;88.76;;
37279;Laerm;7458;49.002;8.472;2023-09-18T12:17:43;47.70;38.81;63.31;;
37279;Laerm;7458;49.002;8.472;2023-09-18T12:20:18;50.49;38.95;67.67;;
37279;Laerm;7458;49.002;8.472;2023-09-18T12:22:50;42.75;38.37;56.70;;
37279;Laerm;7458;49.002;8.472;2023-09-18T12:25:17;47.65;38.95;66.63;;
37279;Laerm;7458;49.002;8.472;2023-09-18T12:27:44;44.79;38.67;61.63;;
37279;Laerm;7458;49.002;8.472;2023-09-18T12:30:12;45.33;38.37;63.91;;
37279;Laerm;7458;49.002;8.472;2023-09-18T12:32:39;49.19;38.81;64.56;;
37279;Laerm;7458;49.002;8.472;2023-09-18T12:35:08;46.73;38.05;60.09;;
37279;Laerm;7458;49.002;8.472;2023-09-18T12:37:39;50.46;38.81;69.26;;
37279;Laerm;7458;49.002;8.472;2023-09-18T12:40:06;46.19;39.08;65.01;;
37279;Laerm;7458;49.002;8.472;2023-09-18T12:42:38;49.67;38.37;64.43;;
37279;Laerm;7458;49.002;8.472;2023-09-18T12:45:07;47.29;38.81;62.61;;
37279;Laerm;7458;49.002;8.472;2023-09-18T12:47:35;47.18;39.08;63.80;;
37279;Laerm;7458;49.002;8.472;2023-09-18T12:50:04;50.23;39.21;67.57;;
37279;Laerm;7458;49.002;8.472;2023-09-18T12:52:32;45.97;38.21;60.34;;
37279;Laerm;7458;49.002;8.472;2023-09-18T12:54:59;45.99;38.52;60.13;;
37279;Laerm;7458;49.002;8.472;2023-09-18T12:57:27;50.30;38.52;63.94;;
37279;Laerm;7458;49.002;8.472;2023-09-18T12:59:54;50.48;38.05;75.83;;
37279;Laerm;7458;49.002;8.472;2023-09-18T13:02:20;47.59;38.81;63.45;;
37279;Laerm;7458;49.002;8.472;2023-09-18T13:04:56;44.17;37.88;58.51;;
37279;Laerm;7458;49.002;8.472;2023-09-18T13:07:23;50.69;38.21;66.46;;
37279;Laerm;7458;49.002;8.472;2023-09-18T13:10:05;44.94;37.88;60.36;;
37279;Laerm;7458;49.002;8.472;2023-09-18T13:12:51;54.45;38.81;66.46;;
37279;Laerm;7458;49.002;8.472;2023-09-18T13:15:33;48.56;37.88;65.65;;
37279;Laerm;7458;49.002;8.472;2023-09-18T13:18:08;51.06;37.88;68.99;;
37279;Laerm;7458;49.002;8.472;2023-09-18T13:20:34;49.98;39.08;67.76;;
37279;Laerm;7458;49.002;8.472;2023-09-18T13:23:00;45.25;38.21;60.86;;
37279;Laerm;7458;49.002;8.472;2023-09-18T13:25:36;51.77;37.88;69.35;;
37279;Laerm;7458;49.002;8.472;2023-09-18T13:28:08;47.18;39.70;63.31;;
37279;Laerm;7458;49.002;8.472;2023-09-18T13:30:37;58.82;37.52;78.78;;
37279;Laerm;7458;49.002;8.472;2023-09-18T13:33:11;47.78;38.05;65.22;;
37279;Laerm;7458;49.002;8.472;2023-09-18T13:35:43;50.91;38.95;70.42;;
37279;Laerm;7458;49.002;8.472;2023-09-18T13:38:11;48.39;37.12;65.41;;
37279;Laerm;7458;49.002;8.472;2023-09-18T13:40:38;46.07;38.67;61.86;;
37279;Laerm;7458;49.002;8.472;2023-09-18T13:43:05;51.82;40.80;70.05;;
37279;Laerm;7458;49.002;8.472;2023-09-18T13:45:33;47.85;39.70;62.98;;
37279;Laerm;7458;49.002;8.472;2023-09-18T13:48:04;50.30;38.81;68.80;;
37279;Laerm;7458;49.002;8.472;2023-09-18T13:50:31;49.79;38.67;67.80;;
37279;Laerm;7458;49.002;8.472;2023-09-18T13:52:57;47.44;38.67;63.25;;
37279;Laerm;7458;49.002;8.472;2023-09-18T13:55:23;48.87;38.21;63.10;;
37279;Laerm;7458;49.002;8.472;2023-09-18T13:57:49;50.60;39.81;72.24;;
37279;Laerm;7458;49.002;8.472;2023-09-18T14:00:16;49.03;38.67;64.65;;
37279;Laerm;7458;49.002;8.472;2023-09-18T14:02:42;51.41;39.70;73.87;;
37279;Laerm;7458;49.002;8.472;2023-09-18T14:05:09;46.53;40.13;62.18;;
37279;Laerm;7458;49.002;8.472;2023-09-18T14:07:38;48.32;39.46;63.90;;
37279;Laerm;7458;49.002;8.472;2023-09-18T14:10:10;47.75;40.23;63.68;;
37279;Laerm;7458;49.002;8.472;2023-09-18T14:12:39;50.32;40.80;66.45;;